Time;durP1;ratioP1;P1;durP2;ratioP2;P2;SDS_P1;SDS_P2;PMS_P1;PMS_P2;Temp;Humidity;BMP_temperature;BMP_pressure;BME280_temperature;BME280_humidity;BME280_pressure;Samples;Min_cycle;Max_cycle;Signal;HPM_P1;HPM_P2
2021/08/09 00:00:15;;;;;;;;;;;;;;;;;;2147312;59;1437;-90
2021/08/09 00:02:43;;;;;;;;;;;;;;;;;;2147354;59;1299;-90
2021/08/09 00:05:24;;;;;;;;;;;;;;;;;;2147170;59;1388;-88
2021/08/09 00:07:53;;;;;;;;;;;;;;;;;;2147342;67;1305;-90
2021/08/09 00:10:23;;;;;;;;;;;;;;;;;;2147574;67;1306;-88
2021/08/09 00:12:51;;;;;;;;;;;;;;;;;;2147680;67;1334;-88
2021/08/09 00:15:17;;;;;;;;;;;;;;;;;;2147757;59;1436;-90
2021/08/09 00:17:42;;;;;;;;;;;;;;;;;;2147509;66;1992;-91
2021/08/09 00:20:08;;;;;;;;;;;;;;;;;;2147943;67;1185;-91
2021/08/09 00:22:34;;;;;;;;;;;;;;;;;;2147323;67;915;-89
2021/08/09 00:25:02;;;;;;;;;;;;;;;;;;2147470;67;1344;-91
2021/08/09 00:27:28;;;;;;;;;;;;;;;;;;2147671;67;1391;-90
2021/08/09 00:29:53;;;;;;;;;;;;;;;;;;2146983;67;1312;-91
2021/08/09 00:32:19;;;;;;;;;;;;;;;;;;2147542;67;1535;-90
2021/08/09 00:34:45;;;;;;;;;;;;;;;;;;2147205;59;1303;-90
2021/08/09 00:37:10;;;;;;;;;;;;;;;;;;2147003;67;1959;-90
2021/08/09 00:39:36;;;;;;;;;;;;;;;;;;2147074;67;1320;-89
2021/08/09 00:42:02;;;;;;;;;;;;;;;;;;2146952;67;1269;-89
2021/08/09 00:44:27;;;;;;;;;;;;;;;;;;2147365;59;1351;-89
2021/08/09 00:46:55;;;;;;;;;;;;;;;;;;2147459;59;1356;-89
2021/08/09 00:49:30;;;;;;;;;;;;;;;;;;2147287;67;1325;-88
2021/08/09 00:51:56;;;;;;;;;;;;;;;;;;2148023;67;1354;-88
2021/08/09 00:54:28;;;;;;;;;;;;;;;;;;2147530;67;1371;-88
2021/08/09 00:56:56;;;;;;;;;;;;;;;;;;2147346;67;1969;-88
2021/08/09 00:59:24;;;;;;;;;;;;;;;;;;2150789;59;871;-88
2021/08/09 01:01:58;;;;;;;;;;;;;;;;;;2147468;59;1324;-88
2021/08/09 01:04:34;;;;;;;;;;;;;;;;;;2147714;67;1395;-89
2021/08/09 01:07:14;;;;;;;;;;;;;;;;;;2147309;67;1383;-90
2021/08/09 01:09:48;;;;;;;;;;;;;;;;;;2147472;67;1293;-89
2021/08/09 01:12:18;;;;;;;;;;;;;;;;;;2147225;59;1540;-90
2021/08/09 01:14:52;;;;;;;;;;;;;;;;;;2147020;59;1391;-89
2021/08/09 01:17:19;;;;;;;;;;;;;;;;;;2146909;67;1907;-90
2021/08/09 01:19:50;;;;;;;;;;;;;;;;;;2147203;67;1282;-89
2021/08/09 01:22:36;;;;;;;;;;;;;;;;;;2147581;67;1293;-89
2021/08/09 01:25:26;;;;;;;;;;;;;;;;;;2147768;67;1485;-89
2021/08/09 01:27:53;;;;;;;;;;;;;;;;;;2144349;67;1384;-90
2021/08/09 01:30:22;;;;;;;;;;;;;;;;;;2143886;67;1293;-89
2021/08/09 01:32:48;;;;;;;;;;;;;;;;;;2144026;67;1245;-89
2021/08/09 01:35:14;;;;;;;;;;;;;;;;;;2150386;67;1309;-90
2021/08/09 01:37:56;;;;;;;;;;;;;;;;;;2144471;67;1977;-90
2021/08/09 01:40:25;;;;;;;;;;;;;;;;;;2145010;67;1553;-90
2021/08/09 01:43:19;;;;;;;;;;;;;;;;;;2145155;67;1300;-89
2021/08/09 01:45:37;;;;;;;;;;;;;;;;;;2147315;67;1332;-90
2021/08/09 01:48:13;;;;;;;;;;;;;;;;;;2144974;67;1231;-89
2021/08/09 01:50:48;;;;;;;;;;;;;;;;;;2144879;59;1261;-90
2021/08/09 01:53:14;;;;;;;;;;;;;;;;;;2144969;59;1287;-90
2021/08/09 01:55:40;;;;;;;;;;;;;;;;;;2150277;67;1925;-89
2021/08/09 01:58:05;;;;;;;;;;;;;;;;;;2143884;67;1299;-89
2021/08/09 02:00:31;;;;;;;;;;;;;;;;;;2145947;59;1231;-89
2021/08/09 02:02:57;;;;;;;;;;;;;;;;;;2151655;66;1529;-89
2021/08/09 02:05:23;;;;;;;;;;;;;;;;;;2151973;66;1300;-89
2021/08/09 02:07:52;;;;;;;;;;;;;;;;;;2151645;59;1360;-91
2021/08/09 02:10:20;;;;;;;;;;;;;;;;;;2151782;59;1351;-91
2021/08/09 02:13:27;;;;;;;;;;;;;;;;;;2152061;66;1313;-90
2021/08/09 02:16:11;;;;;;;;;;;;;;;;;;2145723;60;1913;-89
2021/08/09 02:18:55;;;;;;;;;;;;;;;;;;2144874;59;1350;-89
2021/08/09 02:21:24;;;;;;;;;;;;;;;;;;2151160;67;1341;-88
2021/08/09 02:24:04;;;;;;;;;;;;;;;;;;2144919;67;1417;-92
2021/08/09 02:26:37;;;;;;;;;;;;;;;;;;2144647;67;1348;-90
2021/08/09 02:29:06;;;;;;;;;;;;;;;;;;2144597;67;1238;-90
2021/08/09 02:31:33;;;;;;;;;;;;;;;;;;2144317;67;1290;-90
2021/08/09 02:34:00;;;;;;;;;;;;;;;;;;2144461;67;1409;-90
2021/08/09 02:36:28;;;;;;;;;;;;;;;;;;2144349;67;1957;-91
2021/08/09 02:38:55;;;;;;;;;;;;;;;;;;2150672;67;1300;-89
2021/08/09 02:41:20;;;;;;;;;;;;;;;;;;2143714;67;1521;-92
2021/08/09 02:43:46;;;;;;;;;;;;;;;;;;2150609;67;1194;-91
2021/08/09 02:46:11;;;;;;;;;;;;;;;;;;2144761;67;1454;-90
2021/08/09 02:48:40;;;;;;;;;;;;;;;;;;2144416;67;1301;-91
2021/08/09 02:51:07;;;;;;;;;;;;;;;;;;2144172;67;1312;-89
2021/08/09 02:53:41;;;;;;;;;;;;;;;;;;2144610;67;1250;-88
2021/08/09 02:56:07;;;;;;;;;;;;;;;;;;2144190;67;1931;-89
2021/08/09 02:58:52;;;;;;;;;;;;;;;;;;2150974;66;1376;-89
2021/08/09 03:01:27;;;;;;;;;;;;;;;;;;2151530;59;1287;-88
2021/08/09 03:03:54;;;;;;;;;;;;;;;;;;2146951;67;1310;-91
2021/08/09 03:06:20;;;;;;;;;;;;;;;;;;2149716;59;1355;-88
2021/08/09 03:08:46;;;;;;;;;;;;;;;;;;2145671;59;1329;-89
2021/08/09 03:11:13;;;;;;;;;;;;;;;;;;2145403;67;1242;-90
2021/08/09 03:13:44;;;;;;;;;;;;;;;;;;2145818;59;1664;-91
2021/08/09 03:16:09;;;;;;;;;;;;;;;;;;2145985;59;1918;-92
2021/08/09 03:18:35;;;;;;;;;;;;;;;;;;2146151;67;1186;-89
2021/08/09 03:21:00;;;;;;;;;;;;;;;;;;2149848;59;844;-88
2021/08/09 03:23:25;;;;;;;;;;;;;;;;;;2149494;59;800;-89
2021/08/09 03:25:50;;;;;;;;;;;;;;;;;;2149404;59;1220;-89
2021/08/09 03:28:16;;;;;;;;;;;;;;;;;;2149168;59;876;-91
2021/08/09 03:30:41;;;;;;;;;;;;;;;;;;2151313;66;1316;-89
2021/08/09 03:33:06;;;;;;;;;;;;;;;;;;2149129;59;994;-89
2021/08/09 03:35:31;;;;;;;;;;;;;;;;;;2151561;66;1348;-90
2021/08/09 03:37:57;;;;;;;;;;;;;;;;;;2145820;59;1955;-90
2021/08/09 03:40:22;;;;;;;;;;;;;;;;;;2149453;59;1085;-88
2021/08/09 03:42:47;;;;;;;;;;;;;;;;;;2145774;67;1288;-90
2021/08/09 03:45:12;;;;;;;;;;;;;;;;;;2149685;59;1286;-90
2021/08/09 03:47:38;;;;;;;;;;;;;;;;;;2145533;67;1278;-89
2021/08/09 03:50:04;;;;;;;;;;;;;;;;;;2149335;59;1148;-89
2021/08/09 03:52:29;;;;;;;;;;;;;;;;;;2151437;59;1374;-91
2021/08/09 03:54:54;;;;;;;;;;;;;;;;;;2149722;66;1272;-91
2021/08/09 03:57:20;;;;;;;;;;;;;;;;;;2153072;59;1897;-91
2021/08/09 03:59:45;;;;;;;;;;;;;;;;;;2153410;59;881;-89
2021/08/09 04:02:14;;;;;;;;;;;;;;;;;;2153056;59;1050;-90
2021/08/09 04:04:40;;;;;;;;;;;;;;;;;;2152733;59;1343;-89
2021/08/09 04:07:05;;;;;;;;;;;;;;;;;;2155976;66;1013;-89
2021/08/09 04:09:30;;;;;;;;;;;;;;;;;;2152843;66;1451;-89
2021/08/09 04:11:55;;;;;;;;;;;;;;;;;;2155121;66;1625;-90
2021/08/09 04:14:21;;;;;;;;;;;;;;;;;;2149624;59;1295;-89
2021/08/09 04:16:46;;;;;;;;;;;;;;;;;;2152792;59;1910;-88
2021/08/09 04:19:11;;;;;;;;;;;;;;;;;;2152752;66;975;-90
2021/08/09 04:21:36;;;;;;;;;;;;;;;;;;2153138;59;1210;-90
2021/08/09 04:24:02;;;;;;;;;;;;;;;;;;2152698;59;949;-88
2021/08/09 04:26:27;;;;;;;;;;;;;;;;;;2149482;66;1322;-90
2021/08/09 04:28:52;;;;;;;;;;;;;;;;;;2147526;67;1235;-89
2021/08/09 04:31:18;;;;;;;;;;;;;;;;;;2152242;66;1264;-88
2021/08/09 04:33:44;;;;;;;;;;;;;;;;;;2149434;59;852;-89
2021/08/09 04:36:10;;;;;;;;;;;;;;;;;;2148773;59;1885;-89
2021/08/09 04:38:35;;;;;;;;;;;;;;;;;;2149073;67;803;-90
2021/08/09 04:41:02;;;;;;;;;;;;;;;;;;2145571;67;1354;-90
2021/08/09 04:43:28;;;;;;;;;;;;;;;;;;2145369;59;1317;-88
2021/08/09 04:45:53;;;;;;;;;;;;;;;;;;2151480;59;1289;-91
2021/08/09 04:48:18;;;;;;;;;;;;;;;;;;2151382;66;1341;-91
2021/08/09 04:50:43;;;;;;;;;;;;;;;;;;2151813;66;1225;-88
2021/08/09 04:53:10;;;;;;;;;;;;;;;;;;2146401;67;1281;-89
2021/08/09 04:55:35;;;;;;;;;;;;;;;;;;2145607;67;1334;-92
2021/08/09 04:58:00;;;;;;;;;;;;;;;;;;2148895;67;2017;-89
2021/08/09 05:00:25;;;;;;;;;;;;;;;;;;2151586;59;1285;-89
2021/08/09 05:02:51;;;;;;;;;;;;;;;;;;2145645;67;1296;-88
2021/08/09 05:05:16;;;;;;;;;;;;;;;;;;2149189;59;1339;-91
2021/08/09 05:07:41;;;;;;;;;;;;;;;;;;2149186;59;844;-88
2021/08/09 05:10:07;;;;;;;;;;;;;;;;;;2145749;59;1279;-89
2021/08/09 05:12:32;;;;;;;;;;;;;;;;;;2149390;59;915;-88
2021/08/09 05:14:57;;;;;;;;;;;;;;;;;;2148830;59;1276;-91
2021/08/09 05:17:23;;;;;;;;;;;;;;;;;;2145565;67;1936;-89
2021/08/09 05:19:48;;;;;;;;;;;;;;;;;;2148823;67;1232;-90
2021/08/09 05:22:13;;;;;;;;;;;;;;;;;;2145315;67;902;-88
2021/08/09 05:24:39;;;;;;;;;;;;;;;;;;2145796;59;1355;-87
2021/08/09 05:27:05;;;;;;;;;;;;;;;;;;2150298;59;1222;-87
2021/08/09 05:29:30;;;;;;;;;;;;;;;;;;2150942;67;781;-91
2021/08/09 05:31:55;;;;;;;;;;;;;;;;;;2149155;59;1065;-89
2021/08/09 05:34:20;;;;;;;;;;;;;;;;;;2151296;59;1305;-91
2021/08/09 05:36:46;;;;;;;;;;;;;;;;;;2153454;59;1924;-90
2021/08/09 05:39:11;;;;;;;;;;;;;;;;;;2156779;66;1291;-86
2021/08/09 05:41:36;;;;;;;;;;;;;;;;;;2151247;66;1413;-89
2021/08/09 05:44:02;;;;;;;;;;;;;;;;;;2152539;59;848;-87
2021/08/09 05:46:27;;;;;;;;;;;;;;;;;;2152958;59;1327;-90
2021/08/09 05:48:52;;;;;;;;;;;;;;;;;;2151808;59;1138;-89
2021/08/09 05:51:17;;;;;;;;;;;;;;;;;;2149025;67;870;-91
2021/08/09 05:53:43;;;;;;;;;;;;;;;;;;2148382;59;1278;-89
2021/08/09 05:56:08;;;;;;;;;;;;;;;;;;2148176;67;1936;-91
2021/08/09 05:58:33;;;;;;;;;;;;;;;;;;2151765;59;1300;-88
2021/08/09 06:00:58;;;;;;;;;;;;;;;;;;2147845;59;1299;-89
2021/08/09 06:03:23;;;;;;;;;;;;;;;;;;2146435;67;1390;-89
2021/08/09 06:05:49;;;;;;;;;;;;;;;;;;2148196;59;1292;-89
2021/08/09 06:08:15;;;;;;;;;;;;;;;;;;2148035;67;1222;-89
2021/08/09 06:10:40;;;;;;;;;;;;;;;;;;2148273;59;1215;-89
2021/08/09 06:13:05;;;;;;;;;;;;;;;;;;2148263;59;995;-89
2021/08/09 06:15:31;;;;;;;;;;;;;;;;;;2147819;59;1340;-90
2021/08/09 06:17:57;;;;;;;;;;;;;;;;;;2148304;67;1936;-89
2021/08/09 06:20:22;;;;;;;;;;;;;;;;;;2144738;67;890;-90
2021/08/09 06:22:47;;;;;;;;;;;;;;;;;;2147906;67;1468;-91
2021/08/09 06:25:12;;;;;;;;;;;;;;;;;;2148073;59;1225;-90
2021/08/09 06:27:39;;;;;;;;;;;;;;;;;;2148719;67;1068;-90
2021/08/09 06:30:05;;;;;;;;;;;;;;;;;;2144864;59;1288;-89
2021/08/09 06:32:30;;;;;;;;;;;;;;;;;;2148614;59;1245;-91
2021/08/09 06:34:55;;;;;;;;;;;;;;;;;;2148681;59;1308;-90
2021/08/09 06:37:22;;;;;;;;;;;;;;;;;;2150615;66;1970;-89
2021/08/09 06:39:47;;;;;;;;;;;;;;;;;;2150715;66;1399;-90
2021/08/09 06:42:12;;;;;;;;;;;;;;;;;;2144813;67;1270;-91
2021/08/09 06:44:37;;;;;;;;;;;;;;;;;;2148273;59;1372;-89
2021/08/09 06:47:03;;;;;;;;;;;;;;;;;;2148703;59;1336;-91
2021/08/09 06:49:28;;;;;;;;;;;;;;;;;;2144739;67;1242;-90
2021/08/09 06:51:53;;;;;;;;;;;;;;;;;;2151698;59;1191;-89
2021/08/09 06:54:26;;;;;;;;;;;;;;;;;;2152419;59;1256;-88
2021/08/09 06:56:51;;;;;;;;;;;;;;;;;;2148812;59;1952;-88
2021/08/09 06:59:17;;;;;;;;;;;;;;;;;;2152072;66;990;-90
2021/08/09 07:01:42;;;;;;;;;;;;;;;;;;2146610;59;1309;-89
2021/08/09 07:04:07;;;;;;;;;;;;;;;;;;2147935;67;1029;-88
2021/08/09 07:06:33;;;;;;;;;;;;;;;;;;2147951;67;1331;-87
2021/08/09 07:09:00;;;;;;;;;;;;;;;;;;2148405;67;1077;-87
2021/08/09 07:11:25;;;;;;;;;;;;;;;;;;2151742;59;1193;-89
2021/08/09 07:13:52;;;;;;;;;;;;;;;;;;2144959;67;1302;-87
2021/08/09 07:16:19;;;;;;;;;;;;;;;;;;2148163;59;1975;-87
2021/08/09 07:18:44;;;;;;;;;;;;;;;;;;2148459;67;859;-87
2021/08/09 07:21:12;;;;;;;;;;;;;;;;;;2153343;59;1268;-90
2021/08/09 07:23:37;;;;;;;;;;;;;;;;;;2149699;67;1322;-88
2021/08/09 07:26:03;;;;;;;;;;;;;;;;;;2152954;59;1493;-90
2021/08/09 07:28:29;;;;;;;;;;;;;;;;;;2149892;67;1287;-89
2021/08/09 07:30:55;;;;;;;;;;;;;;;;;;2153744;59;981;-88
2021/08/09 07:33:20;;;;;;;;;;;;;;;;;;2153721;59;1094;-88
2021/08/09 07:35:45;;;;;;;;;;;;;;;;;;2150198;67;1897;-86
2021/08/09 07:38:11;;;;;;;;;;;;;;;;;;2156610;66;1208;-89
2021/08/09 07:40:36;;;;;;;;;;;;;;;;;;2153198;59;1197;-88
2021/08/09 07:43:01;;;;;;;;;;;;;;;;;;2158487;66;1210;-90
2021/08/09 07:45:27;;;;;;;;;;;;;;;;;;2148157;59;1355;-90
2021/08/09 07:47:52;;;;;;;;;;;;;;;;;;2150003;66;1261;-89
2021/08/09 07:50:18;;;;;;;;;;;;;;;;;;2144198;67;1332;-90
2021/08/09 07:52:44;;;;;;;;;;;;;;;;;;2150380;59;1367;-90
2021/08/09 07:55:09;;;;;;;;;;;;;;;;;;2150824;67;1308;-90
2021/08/09 07:57:34;;;;;;;;;;;;;;;;;;2158238;66;1971;-88
2021/08/09 07:59:59;;;;;;;;;;;;;;;;;;2153390;59;885;-90
2021/08/09 08:02:25;;;;;;;;;;;;;;;;;;2150378;59;1201;-88
2021/08/09 08:04:50;;;;;;;;;;;;;;;;;;2153387;59;1248;-88
2021/08/09 08:07:15;;;;;;;;;;;;;;;;;;2159338;59;1192;-92
2021/08/09 08:09:40;;;;;;;;;;;;;;;;;;2151554;67;1154;-89
2021/08/09 08:12:06;;;;;;;;;;;;;;;;;;2151079;59;1207;-92
2021/08/09 08:14:31;;;;;;;;;;;;;;;;;;2153056;66;1375;-88
2021/08/09 08:16:56;;;;;;;;;;;;;;;;;;2153241;59;1903;-88
2021/08/09 08:19:22;;;;;;;;;;;;;;;;;;2152980;59;1202;-89
2021/08/09 08:21:47;;;;;;;;;;;;;;;;;;2152526;59;1179;-87
2021/08/09 08:24:13;;;;;;;;;;;;;;;;;;2150029;66;960;-90
2021/08/09 08:26:38;;;;;;;;;;;;;;;;;;2152862;59;1434;-90
2021/08/09 08:29:03;;;;;;;;;;;;;;;;;;2149608;59;1234;-92
2021/08/09 08:31:29;;;;;;;;;;;;;;;;;;2149278;59;1083;-89
2021/08/09 08:33:54;;;;;;;;;;;;;;;;;;2146142;67;1306;-90
2021/08/09 08:36:19;;;;;;;;;;;;;;;;;;2149432;59;1943;-91
2021/08/09 08:38:45;;;;;;;;;;;;;;;;;;2145692;67;931;-89
2021/08/09 08:41:10;;;;;;;;;;;;;;;;;;2148900;59;1192;-91
2021/08/09 08:43:36;;;;;;;;;;;;;;;;;;2146905;66;1392;-89
2021/08/09 08:46:03;;;;;;;;;;;;;;;;;;2149124;59;1289;-89
2021/08/09 08:48:29;;;;;;;;;;;;;;;;;;2148747;59;1045;-90
2021/08/09 08:50:57;;;;;;;;;;;;;;;;;;2148639;59;1167;-91
2021/08/09 08:53:22;;;;;;;;;;;;;;;;;;2145109;67;1344;-90
2021/08/09 08:55:47;;;;;;;;;;;;;;;;;;2144902;59;1927;-89
2021/08/09 08:58:13;;;;;;;;;;;;;;;;;;2144864;59;1244;-89
2021/08/09 09:00:39;;;;;;;;;;;;;;;;;;2149188;59;1201;-88
2021/08/09 09:03:14;;;;;;;;;;;;;;;;;;2150081;59;1222;-89
2021/08/09 09:05:40;;;;;;;;;;;;;;;;;;2147939;59;1365;-88
2021/08/09 09:08:05;;;;;;;;;;;;;;;;;;2148906;59;1016;-87
2021/08/09 09:10:35;;;;;;;;;;;;;;;;;;2148942;59;1126;-88
2021/08/09 09:13:08;;;;;;;;;;;;;;;;;;2148298;59;1250;-88
2021/08/09 09:15:53;;;;;;;;;;;;;;;;;;2145715;59;1308;-88
2021/08/09 09:18:18;;;;;;;;;;;;;;;;;;2148366;59;1463;-89
2021/08/09 09:20:43;;;;;;;;;;;;;;;;;;2145028;59;1283;-89
2021/08/09 09:23:14;;;;;;;;;;;;;;;;;;2149554;59;981;-87
2021/08/09 09:25:39;;;;;;;;;;;;;;;;;;2146517;59;1302;-89
2021/08/09 09:28:20;;;;;;;;;;;;;;;;;;2148632;59;879;-91
2021/08/09 09:30:47;;;;;;;;;;;;;;;;;;2148763;59;2131;-89
2021/08/09 09:33:12;;;;;;;;;;;;;;;;;;2145530;59;1250;-89
2021/08/09 09:35:38;;;;;;;;;;;;;;;;;;2150098;60;1407;-89
2021/08/09 09:38:03;;;;;;;;;;;;;;;;;;2147361;67;1945;-92
2021/08/09 09:40:37;;;;;;;;;;;;;;;;;;2151193;59;1006;-91
2021/08/09 09:43:13;;;;;;;;;;;;;;;;;;2144441;59;1147;-89
2021/08/09 09:45:48;;;;;;;;;;;;;;;;;;2147490;59;1308;-89
2021/08/09 09:48:14;;;;;;;;;;;;;;;;;;2148879;59;1250;-89
2021/08/09 09:50:41;;;;;;;;;;;;;;;;;;2146223;59;1336;-89
2021/08/09 09:53:17;;;;;;;;;;;;;;;;;;2143950;59;1317;-88
2021/08/09 09:55:43;;;;;;;;;;;;;;;;;;2145152;67;1387;-89
2021/08/09 09:58:08;;;;;;;;;;;;;;;;;;2147686;67;1916;-89
2021/08/09 10:00:33;;;;;;;;;;;;;;;;;;2148200;59;1716;-89
2021/08/09 10:02:59;;;;;;;;;;;;;;;;;;2146027;67;1298;-89
2021/08/09 10:05:24;;;;;;;;;;;;;;;;;;2151602;66;1317;-90
2021/08/09 10:07:52;;;;;;;;;;;;;;;;;;2150291;59;1238;-88
2021/08/09 10:10:18;;;;;;;;;;;;;;;;;;2153635;59;1050;-90
2021/08/09 10:12:47;;;;;;;;;;;;;;;;;;2148474;66;1217;-89
2021/08/09 10:15:16;;;;;;;;;;;;;;;;;;2147710;66;1333;-89
2021/08/09 10:17:42;;;;;;;;;;;;;;;;;;2147798;59;1910;-88
2021/08/09 10:20:09;;;;;;;;;;;;;;;;;;2144908;59;1318;-86
2021/08/09 10:22:35;;;;;;;;;;;;;;;;;;2144904;67;1570;-90
2021/08/09 10:25:01;;;;;;;;;;;;;;;;;;2145931;59;2044;-87
2021/08/09 10:27:45;;;;;;;;;;;;;;;;;;2146964;59;1295;-89
2021/08/09 10:30:10;;;;;;;;;;;;;;;;;;2143015;59;1259;-88
2021/08/09 10:32:45;;;;;;;;;;;;;;;;;;2146820;67;1329;-89
2021/08/09 10:35:29;;;;;;;;;;;;;;;;;;2144190;67;1304;-88
2021/08/09 10:38:14;;;;;;;;;;;;;;;;;;2144283;67;1981;-90
2021/08/09 10:40:44;;;;;;;;;;;;;;;;;;2144459;59;1375;-88
2021/08/09 10:43:10;;;;;;;;;;;;;;;;;;2147957;59;968;-90
2021/08/09 10:45:48;;;;;;;;;;;;;;;;;;2144657;59;1394;-88
2021/08/09 10:48:14;;;;;;;;;;;;;;;;;;2146000;59;1207;-89
2021/08/09 10:50:40;;;;;;;;;;;;;;;;;;2144902;59;1742;-88
2021/08/09 10:53:23;;;;;;;;;;;;;;;;;;2147608;59;1112;-89
2021/08/09 10:55:49;;;;;;;;;;;;;;;;;;2149410;59;1551;-89
2021/08/09 10:58:53;;;;;;;;;;;;;;;;;;2147793;59;1914;-88
2021/08/09 11:01:21;;;;;;;;;;;;;;;;;;2142631;59;1304;-89
2021/08/09 11:04:02;;;;;;;;;;;;;;;;;;2136462;59;2063;-88
2021/08/09 11:06:36;;;;;;;;;;;;;;;;;;2146010;59;1308;-87
2021/08/09 11:09:22;;;;;;;;;;;;;;;;;;2145458;67;1366;-88
2021/08/09 11:12:09;;;;;;;;;;;;;;;;;;2146472;67;1194;-91
2021/08/09 11:14:53;;;;;;;;;;;;;;;;;;2144273;59;1396;-89
2021/08/09 11:17:18;;;;;;;;;;;;;;;;;;2148036;59;1904;-91
2021/08/09 11:19:44;;;;;;;;;;;;;;;;;;2147751;59;1107;-90
2021/08/09 11:22:09;;;;;;;;;;;;;;;;;;2144892;67;1300;-90
2021/08/09 11:24:35;;;;;;;;;;;;;;;;;;2144436;67;1328;-89
2021/08/09 11:27:04;;;;;;;;;;;;;;;;;;2148039;59;1340;-89
2021/08/09 11:29:49;;;;;;;;;;;;;;;;;;2144204;67;1276;-91
2021/08/09 11:32:14;;;;;;;;;;;;;;;;;;2140985;67;1250;-89
2021/08/09 11:34:58;;;;;;;;;;;;;;;;;;2147379;59;1300;-91
2021/08/09 11:37:23;;;;;;;;;;;;;;;;;;2150302;66;1928;-88
2021/08/09 11:39:48;;;;;;;;;;;;;;;;;;2147465;59;1396;-90
2021/08/09 11:42:14;;;;;;;;;;;;;;;;;;2147795;67;1117;-90
2021/08/09 11:44:39;;;;;;;;;;;;;;;;;;2147554;59;1270;-90
2021/08/09 11:47:05;;;;;;;;;;;;;;;;;;2147452;59;1357;-90
2021/08/09 11:49:30;;;;;;;;;;;;;;;;;;2144276;67;1325;-89
2021/08/09 11:51:58;;;;;;;;;;;;;;;;;;2144435;59;1314;-90
2021/08/09 11:54:36;;;;;;;;;;;;;;;;;;2144297;67;1285;-90
2021/08/09 11:57:01;;;;;;;;;;;;;;;;;;2149101;59;1897;-88
2021/08/09 11:59:27;;;;;;;;;;;;;;;;;;2145398;59;1488;-89
2021/08/09 12:02:04;;;;;;;;;;;;;;;;;;2148473;59;1116;-89
2021/08/09 12:04:40;;;;;;;;;;;;;;;;;;2145698;67;1308;-89
2021/08/09 12:07:15;;;;;;;;;;;;;;;;;;2145161;59;1420;-89
2021/08/09 12:09:41;;;;;;;;;;;;;;;;;;2145465;67;1284;-88
2021/08/09 12:12:08;;;;;;;;;;;;;;;;;;2148413;59;984;-90
2021/08/09 12:14:35;;;;;;;;;;;;;;;;;;2148638;59;1312;-88
2021/08/09 12:17:11;;;;;;;;;;;;;;;;;;2148251;60;1924;-92
2021/08/09 12:19:37;;;;;;;;;;;;;;;;;;2144458;67;1248;-88
2021/08/09 12:22:13;;;;;;;;;;;;;;;;;;2148700;59;970;-88
2021/08/09 12:24:39;;;;;;;;;;;;;;;;;;2145277;67;1335;-90
2021/08/09 12:27:20;;;;;;;;;;;;;;;;;;2148857;67;855;-90
2021/08/09 12:29:59;;;;;;;;;;;;;;;;;;2148795;59;909;-92
2021/08/09 12:32:26;;;;;;;;;;;;;;;;;;2149032;59;1404;-91
2021/08/09 12:34:51;;;;;;;;;;;;;;;;;;2144996;67;1283;-90
2021/08/09 12:37:16;;;;;;;;;;;;;;;;;;2148593;59;1897;-89
2021/08/09 12:39:41;;;;;;;;;;;;;;;;;;2145381;67;1282;-90
2021/08/09 12:42:17;;;;;;;;;;;;;;;;;;2148784;59;1468;-89
2021/08/09 12:44:43;;;;;;;;;;;;;;;;;;2141929;67;1288;-90
2021/08/09 12:47:08;;;;;;;;;;;;;;;;;;2149206;59;830;-91
2021/08/09 12:49:33;;;;;;;;;;;;;;;;;;2148371;67;1405;-87
2021/08/09 12:51:59;;;;;;;;;;;;;;;;;;2149491;59;1110;-90
2021/08/09 12:54:24;;;;;;;;;;;;;;;;;;2146028;67;1307;-90
2021/08/09 12:56:49;;;;;;;;;;;;;;;;;;2145073;67;1915;-89
2021/08/09 12:59:15;;;;;;;;;;;;;;;;;;2145820;59;1230;-91
2021/08/09 13:01:41;;;;;;;;;;;;;;;;;;2145139;59;1306;-90
2021/08/09 13:04:06;;;;;;;;;;;;;;;;;;2145233;67;1245;-89
2021/08/09 13:06:31;;;;;;;;;;;;;;;;;;2144492;67;1297;-90
2021/08/09 13:08:58;;;;;;;;;;;;;;;;;;2147867;59;1234;-89
2021/08/09 13:11:24;;;;;;;;;;;;;;;;;;2145447;59;1312;-90
2021/08/09 13:13:49;;;;;;;;;;;;;;;;;;2148829;59;793;-90
2021/08/09 13:16:17;;;;;;;;;;;;;;;;;;2148258;59;1901;-89
2021/08/09 13:18:43;;;;;;;;;;;;;;;;;;2145194;67;1263;-90
2021/08/09 13:21:08;;;;;;;;;;;;;;;;;;2148992;59;1357;-91
2021/08/09 13:23:33;;;;;;;;;;;;;;;;;;2148239;59;868;-91
2021/08/09 13:25:58;;;;;;;;;;;;;;;;;;2144073;67;1428;-89
2021/08/09 13:28:24;;;;;;;;;;;;;;;;;;2148065;59;814;-89
2021/08/09 13:30:49;;;;;;;;;;;;;;;;;;2147701;59;908;-89
2021/08/09 13:33:14;;;;;;;;;;;;;;;;;;2147111;59;967;-90
2021/08/09 13:35:41;;;;;;;;;;;;;;;;;;2145288;66;1339;-90
2021/08/09 13:38:07;;;;;;;;;;;;;;;;;;2147019;59;1951;-89
2021/08/09 13:40:34;;;;;;;;;;;;;;;;;;2148431;59;1075;-91
2021/08/09 13:42:59;;;;;;;;;;;;;;;;;;2147838;59;1094;-90
2021/08/09 13:45:25;;;;;;;;;;;;;;;;;;2144818;59;1376;-90
2021/08/09 13:47:50;;;;;;;;;;;;;;;;;;2144125;67;1299;-89
2021/08/09 13:50:15;;;;;;;;;;;;;;;;;;2145820;59;1986;-90
2021/08/09 13:52:41;;;;;;;;;;;;;;;;;;2144478;67;1254;-90
2021/08/09 13:55:06;;;;;;;;;;;;;;;;;;2147509;59;1335;-87
2021/08/09 13:57:31;;;;;;;;;;;;;;;;;;2147710;59;1904;-88
2021/08/09 13:59:56;;;;;;;;;;;;;;;;;;2145679;67;1404;-90
2021/08/09 14:02:22;;;;;;;;;;;;;;;;;;2149209;59;1059;-91
2021/08/09 14:04:47;;;;;;;;;;;;;;;;;;2148087;59;2449;-90
2021/08/09 14:07:12;;;;;;;;;;;;;;;;;;2146617;59;1309;-87
2021/08/09 14:09:38;;;;;;;;;;;;;;;;;;2149359;67;1066;-88
2021/08/09 14:12:03;;;;;;;;;;;;;;;;;;2148918;59;1223;-88
2021/08/09 14:14:29;;;;;;;;;;;;;;;;;;2142433;59;1434;-90
2021/08/09 14:16:54;;;;;;;;;;;;;;;;;;2151172;67;1911;-89
2021/08/09 14:19:19;;;;;;;;;;;;;;;;;;2147285;67;1315;-90
2021/08/09 14:21:45;;;;;;;;;;;;;;;;;;2147736;67;1367;-91
2021/08/09 14:24:10;;;;;;;;;;;;;;;;;;2148923;59;1254;-90
2021/08/09 14:26:35;;;;;;;;;;;;;;;;;;2148187;59;1410;-89
2021/08/09 14:29:01;;;;;;;;;;;;;;;;;;2145044;67;1325;-89
2021/08/09 14:31:26;;;;;;;;;;;;;;;;;;2145093;67;1381;-90
2021/08/09 14:33:51;;;;;;;;;;;;;;;;;;2143698;67;1242;-89
2021/08/09 14:36:17;;;;;;;;;;;;;;;;;;2149031;59;1913;-90
2021/08/09 14:38:42;;;;;;;;;;;;;;;;;;2148927;59;1090;-88
2021/08/09 14:41:08;;;;;;;;;;;;;;;;;;2145245;67;1387;-89
2021/08/09 14:44:42;;;;;;;;;;;;;;;;;;2149167;58;1835;-71
2021/08/09 14:47:08;;;;;;;;;;;;;;;;;;2144611;59;1807;-70
2021/08/09 14:49:33;;;;;;;;;;;;;;;;;;2144811;66;1791;-70
2021/08/09 14:51:59;;;;;;;;;;;;;;;;;;2110751;59;140945;-71
2021/08/09 14:54:24;;;;;;;;;;;;;;;;;;2141168;66;1528;-70
2021/08/09 14:56:49;;;;;;;;;;;;;;;;;;2131889;63;21191;-71
2021/08/09 14:59:14;;;;;;;;;;;;;;;;;;2132626;66;1823;-71
2021/08/09 15:01:39;;;;;;;;;;;;;;;;;;2134915;66;1566;-70
2021/08/09 15:04:06;;;;;;;;;;;;;;;;;;2138561;59;1920;-71
2021/08/09 15:06:31;;;;;;;;;;;;;;;;;;2138000;59;3316;-70
2021/08/09 15:08:57;;;;;;;;;;;;;;;;;;2134896;59;2014;-71
2021/08/09 15:11:22;;;;;;;;;;;;;;;;;;2139875;59;1887;-70
2021/08/09 15:13:47;;;;;;;;;;;;;;;;;;2134452;59;1702;-71
2021/08/09 15:16:12;;;;;;;;;;;;;;;;;;2134122;66;2174;-70
2021/08/09 15:18:39;;;;;;;;;;;;;;;;;;2135020;66;1681;-70
2021/08/09 15:21:05;;;;;;;;;;;;;;;;;;2136468;66;1626;-71
2021/08/09 15:23:30;;;;;;;;;;;;;;;;;;2133741;60;1993;-70
2021/08/09 15:25:55;;;;;;;;;;;;;;;;;;2127307;59;1991;-70
2021/08/09 15:28:20;;;;;;;;;;;;;;;;;;2130265;66;2319;-69
2021/08/09 15:30:45;;;;;;;;;;;;;;;;;;2130783;66;1680;-70
2021/08/09 15:33:11;;;;;;;;;;;;;;;;;;2133537;66;1706;-70
2021/08/09 15:35:39;;;;;;;;;;;;;;;;;;2132106;59;1712;-70
2021/08/09 15:38:04;;;;;;;;;;;;;;;;;;2131521;59;1823;-71
2021/08/09 15:40:29;;;;;;;;;;;;;;;;;;2133372;66;1719;-71
2021/08/09 15:42:54;;;;;;;;;;;;;;;;;;2133645;59;1935;-70
2021/08/09 15:45:19;;;;;;;;;;;;;;;;;;2136932;66;1854;-70
2021/08/09 15:47:45;;;;;;;;;;;;;;;;;;2132828;59;2231;-70
2021/08/09 15:50:11;;;;;;;;;;;;;;;;;;2134419;66;2180;-71
2021/08/09 15:52:36;;;;;;;;;;;;;;;;;;2133519;66;1796;-69
2021/08/09 15:55:03;;;;;;;;;;;;;;;;;;2135899;59;2086;-69
2021/08/09 15:57:28;;;;;;;;;;;;;;;;;;2131516;66;1500;-69
2021/08/09 15:59:53;;;;;;;;;;;;;;;;;;2131931;66;1602;-69
2021/08/09 16:02:18;;;;;;;;;;;;;;;;;;2144192;53;2188;-88
2021/08/09 16:04:44;;;;;;;;;;;;;;;;;;2119446;60;1354;-88
2021/08/09 16:07:09;;;;;;;;;;;;;;;;;;2121103;60;1439;-89
2021/08/09 16:09:34;;;;;;;;;;;;;;;;;;2123073;67;1097;-88
2021/08/09 16:12:01;;;;;;;;;;;;;;;;;;2123215;67;1260;-89
2021/08/09 16:14:27;;;;;;;;;;;;;;;;;;2131553;67;1393;-88
2021/08/09 16:16:52;;;;;;;;;;;;;;;;;;2135295;59;1399;-87
2021/08/09 16:19:18;;;;;;;;;;;;;;;;;;2121940;60;1298;-89
2021/08/09 16:21:43;;;;;;;;;;;;;;;;;;2129858;59;1109;-88
2021/08/09 16:24:09;;;;;;;;;;;;;;;;;;2135503;59;1975;-89
2021/08/09 16:26:34;;;;;;;;;;;;;;;;;;2120621;67;1337;-89
2021/08/09 16:29:00;;;;;;;;;;;;;;;;;;2124115;60;1206;-89
2021/08/09 16:31:25;;;;;;;;;;;;;;;;;;2135559;59;1160;-89
2021/08/09 16:33:50;;;;;;;;;;;;;;;;;;2126817;59;1000;-88
2021/08/09 16:36:17;;;;;;;;;;;;;;;;;;2133276;67;1338;-89
2021/08/09 16:38:42;;;;;;;;;;;;;;;;;;2132204;60;1326;-88
2021/08/09 16:41:09;;;;;;;;;;;;;;;;;;2123941;67;1332;-89
2021/08/09 16:43:35;;;;;;;;;;;;;;;;;;2136717;60;1979;-91
2021/08/09 16:46:01;;;;;;;;;;;;;;;;;;2124467;59;1317;-90
2021/08/09 16:48:28;;;;;;;;;;;;;;;;;;2123635;59;1202;-90
2021/08/09 16:50:53;;;;;;;;;;;;;;;;;;2122780;67;1090;-89
2021/08/09 16:53:18;;;;;;;;;;;;;;;;;;2123610;67;1259;-88
2021/08/09 16:55:44;;;;;;;;;;;;;;;;;;2122882;60;1817;-89
2021/08/09 16:58:10;;;;;;;;;;;;;;;;;;2123576;59;1251;-90
2021/08/09 17:00:36;;;;;;;;;;;;;;;;;;2120625;60;1166;-89
2021/08/09 17:03:02;;;;;;;;;;;;;;;;;;2133440;67;1908;-90
2021/08/09 17:05:27;;;;;;;;;;;;;;;;;;2138565;59;1317;-93